Date,TemperatureHighF,TemperatureAvgF,TemperatureLowF,DewpointHighF,DewpointAvgF,DewpointLowF,HumidityHigh,HumidityAvg,HumidityLow,PressureMaxIn,PressureMinIn,WindSpeedMaxMPH,WindSpeedAvgMPH,GustSpeedMaxMPH,PrecipitationSumIn
2012-1-12,28,28,28,27,27,27,100,100,100,29.31,29.31,22,22,24,0.00
2012-1-13,27,19,0,23,19,16,100,100,90,29.79,29.32,39,17,43,0.00
2012-1-14,23,21,19,23,21,19,100,100,98,30.09,29.92,20,10,21,0.00
2012-1-15,31,22,14,24,18,14,100,87,63,30.33,30.09,12,5,13,0.00
2012-1-16,45,35,20,45,29,17,100,80,58,30.24,29.78,27,11,30,0.00
2012-1-17,58,47,33,53,45,32,100,95,79,29.78,29.38,40,15,44,0.00
2012-1-18,25,21,17,21,18,15,100,86,72,30.12,29.95,25,7,26,0.00
2012-1-19,30,23,17,30,20,12,100,88,73,29.97,29.66,34,15,36,0.00
2012-1-20,23,19,15,18,13,9,100,79,59,30.11,29.92,21,6,22,0.00
2012-1-21,26,22,17,26,21,17,100,95,80,30.16,29.85,25,7,28,0.00
2012-1-22,43,30,15,40,25,15,100,85,63,30.14,29.81,21,6,30,0.00
2012-1-23,57,45,35,54,42,32,100,91,78,29.81,29.47,41,15,41,0.00
2012-1-24,36,33,32,34,31,29,100,92,84,30.19,29.79,31,17,35,0.00
2012-1-31,60,57,53,50,42,34,86,58,44,29.96,29.85,31,14,33,0.00
2012-2-1,54,44,34,51,42,34,100,96,80,30.02,29.82,24,8,27,0.00
2012-2-2,39,35,31,38,35,31,100,99,87,30.30,29.99,15,6,15,0.00
2012-2-3,43,33,26,38,32,26,100,97,70,30.40,30.25,10,3,11,0.00
2012-2-4,39,34,32,36,34,31,100,98,81,30.27,30.03,16,5,18,0.00
2012-2-5,37,32,24,37,31,24,100,98,91,30.14,30.01,13,4,15,0.00
2012-2-6,43,37,31,38,34,30,100,89,66,30.09,29.97,18,9,21,0.00
2012-2-7,36,34,30,36,33,30,100,98,90,30.20,30.01,21,12,23,0.00
2012-2-8,31,29,25,31,27,21,100,93,78,30.20,30.09,20,9,21,0.00
2012-2-9,37,31,25,29,26,22,100,81,54,30.14,30.03,23,12,23,0.00
2012-2-10,32,30,29,30,26,21,100,84,67,30.03,29.73,24,10,28,0.00
2012-2-11,31,22,18,30,22,14,100,98,81,30.03,29.63,40,22,42,0.00
2012-2-12,27,24,19,26,21,16,100,91,79,30.01,29.95,33,18,34,0.00
2012-2-13,35,28,20,29,19,12,96,71,41,30.04,29.89,23,10,29,0.00
2012-2-14,36,32,29,35,30,19,100,92,59,29.95,29.79,15,6,17,0.00
2012-2-15,45,37,33,35,32,30,100,83,60,30.24,29.95,18,8,20,0.00
2012-2-16,46,40,35,46,39,34,100,96,76,30.12,29.93,16,8,18,0.00
2012-2-17,38,35,31,35,31,24,100,85,64,30.14,30.04,22,8,24,0.00
2012-2-18,42,35,30,35,28,22,97,78,59,30.19,29.95,27,12,28,0.00
2012-2-19,30,29,28,26,23,21,89,78,70,30.16,30.06,21,8,23,0.00
2012-2-20,33,29,26,29,25,22,100,85,66,30.36,30.14,15,7,18,0.00
2012-2-21,46,40,32,42,32,20,100,75,49,30.16,29.72,22,11,31,0.00
2012-2-22,52,39,32,40,36,32,100,89,52,29.77,29.44,18,8,24,0.00
2012-2-23,37,34,31,37,34,31,100,100,100,29.67,29.44,17,6,21,0.00
2012-2-24,45,37,33,45,36,31,100,95,69,29.72,29.31,39,15,52,0.00
2012-2-25,33,31,29,32,30,25,100,96,74,30.27,29.70,34,20,37,0.00
2012-2-26,44,35,29,29,24,20,95,65,42,30.41,30.19,21,8,27,0.00
2012-2-27,47,39,33,34,28,20,93,65,45,30.44,30.13,29,14,31,0.00
2012-2-28,39,34,28,34,30,27,98,87,65,30.50,30.19,16,8,20,0.00
2012-2-29,55,50,39,55,44,39,100,80,60,29.57,29.53,19,7,28,0.00
2012-3-1,48,38,36,40,36,33,100,91,70,29.93,29.57,23,12,37,0.00
2012-3-2,56,45,34,54,40,32,100,83,58,29.92,29.32,30,8,44,0.00
2012-3-3,46,36,29,40,30,27,100,79,67,29.75,29.40,41,21,46,0.00
2012-3-4,33,30,25,31,28,24,100,91,79,29.87,29.71,23,13,28,0.00
2012-3-5,28,26,23,25,22,18,100,85,72,30.41,29.87,20,10,25,0.00
2012-3-6,53,39,22,30,24,18,86,59,37,30.42,30.21,24,10,33,0.00
2012-3-7,68,59,51,46,36,24,54,42,29,30.30,30.12,29,14,35,0.00
2012-3-8,61,50,36,57,44,32,100,84,54,30.15,29.92,34,14,36,0.00
2012-3-9,36,34,28,34,28,20,100,79,62,30.47,30.13,29,18,34,0.00
2012-3-10,49,39,22,25,19,12,81,46,30,30.57,30.33,23,10,28,0.00
2012-3-11,59,50,42,37,28,22,53,43,34,30.43,30.30,20,6,22,0.00
2012-3-12,61,55,50,58,47,31,100,76,38,30.30,29.96,31,9,31,0.00
2012-3-13,63,52,45,59,48,40,100,89,75,30.14,29.96,25,10,25,0.00
2012-3-14,76,57,40,51,41,30,85,59,29,30.26,30.14,15,5,15,0.00
2012-3-15,75,67,54,62,55,50,100,68,50,30.21,30.11,24,9,29,0.00
2012-3-16,66,58,47,61,56,47,100,96,76,30.23,30.06,18,5,22,0.00
2012-3-17,64,52,46,64,52,46,100,100,94,30.32,30.16,10,3,13,0.00
2012-3-18,69,63,52,63,58,50,100,85,59,30.27,30.14,15,6,28,0.00
2012-3-19,66,54,47,64,53,47,100,98,80,30.23,30.14,11,4,15,0.00
2012-3-20,77,62,50,63,57,50,100,86,60,30.31,30.18,14,6,15,0.00
2012-3-21,77,59,48,60,54,48,100,86,55,30.34,30.18,13,6,16,0.00
2012-3-22,70,58,49,60,54,48,100,88,67,30.28,30.15,12,6,18,0.00
2012-3-23,66,51,46,58,50,46,100,97,70,30.15,29.93,18,6,18,0.00
2012-3-24,62,50,44,62,50,44,100,100,97,29.94,29.86,13,5,16,0.00
2012-3-25,53,45,43,53,45,43,100,100,98,30.05,29.88,18,4,20,0.00
2012-3-26,45,39,34,45,35,26,100,88,57,30.33,29.44,30,19,33,0.00
2012-3-27,55,40,26,40,25,17,87,58,30,30.37,29.92,26,8,27,0.00
2012-3-28,65,56,46,54,44,25,93,68,31,29.93,29.72,26,13,42,0.00
2012-3-29,46,40,37,43,36,32,90,83,75,30.12,29.92,23,13,25,0.00
2012-3-30,54,41,32,43,35,29,100,82,53,30.10,29.64,29,6,44,0.00
2012-3-31,39,38,36,39,38,36,100,98,94,29.92,29.73,23,9,29,0.00
2012-4-1,53,42,33,46,40,33,100,93,67,29.87,29.66,21,6,25,0.00
2012-4-2,49,42,38,42,38,27,100,84,45,30.01,29.77,24,9,25,0.00
2012-4-3,61,45,33,46,37,29,97,75,39,30.04,29.83,22,4,24,0.00
2012-4-4,50,46,41,45,40,34,94,81,65,29.93,29.83,16,7,21,0.00
2012-4-5,42,39,34,39,35,32,100,85,70,30.02,29.84,21,9,24,0.00
2012-4-6,46,42,37,42,36,30,95,79,58,30.21,30.02,19,8,21,0.00
2012-4-7,52,44,30,38,32,21,100,66,34,30.31,30.11,10,5,19,0.00
2012-4-8,53,50,47,49,39,23,100,69,35,30.11,29.95,20,10,22,0.00
2012-4-9,56,49,45,47,44,38,99,82,57,29.98,29.77,26,11,29,0.00
2012-4-10,49,42,37,42,37,31,100,80,66,29.90,29.75,29,16,29,0.00
2012-4-11,45,41,36,41,38,32,100,87,71,30.14,29.88,29,18,29,0.00
2012-4-12,49,44,32,42,36,30,100,77,55,30.24,30.12,16,6,17,0.00
2012-4-13,51,46,36,45,36,28,84,69,51,30.28,30.13,15,5,15,0.00
2012-4-14,58,54,46,58,44,33,100,72,41,30.14,29.94,20,7,22,0.00
2012-4-15,80,67,56,61,58,52,100,75,42,29.96,29.89,25,10,29,0.00
2012-4-16,78,68,52,63,55,47,86,65,40,30.15,29.81,34,15,44,0.00
2012-4-17,52,48,44,50,41,33,96,78,58,30.35,30.15,18,7,20,0.00
2012-4-18,54,47,36,49,39,32,91,75,47,30.28,30.01,19,6,19,0.00
2012-4-19,59,55,52,45,42,40,68,62,59,30.04,30.00,14,7,16,0.00
2012-4-20,78,66,45,54,51,45,100,62,41,29.85,29.72,31,11,35,0.00
2012-4-21,45,42,41,45,41,39,100,97,84,29.94,29.76,23,14,26,0.00
2012-4-22,46,43,42,43,39,35,95,85,76,29.93,29.77,26,12,29,0.00
2012-4-23,49,46,44,43,36,31,89,67,47,29.77,29.51,41,26,50,0.00
2012-4-24,54,48,45,47,37,30,90,66,55,29.65,29.42,29,16,33,0.00
2012-4-25,58,52,48,50,41,33,95,66,39,29.86,29.65,20,8,23,0.00
2012-4-26,59,51,45,55,47,38,100,88,66,29.94,29.63,26,10,30,0.00
2012-4-27,47,42,37,38,32,26,87,68,50,30.21,29.94,28,12,32,0.00
2012-4-28,45,42,36,38,31,25,78,66,50,30.21,30.10,17,4,20,0.00
2012-4-29,54,44,30,42,35,24,100,74,40,30.32,30.13,15,5,17,0.00
2012-4-30,73,52,42,58,40,23,100,69,33,30.20,29.85,23,4,26,0.00
2012-5-1,59,54,50,59,54,50,100,99,88,30.10,29.88,17,6,18,0.00
2012-5-2,82,66,52,68,62,52,100,86,55,30.04,29.92,23,6,29,0.00
2012-5-3,84,76,64,70,66,61,100,75,55,30.18,29.96,19,6,22,0.00
2012-5-4,73,66,59,66,63,59,100,92,75,30.06,29.96,12,5,15,0.00
2012-5-5,59,56,53,59,53,40,100,89,56,30.07,29.93,26,10,32,0.00
2012-5-6,63,54,46,54,46,36,97,77,37,30.11,29.98,21,7,23,0.00
2012-5-7,80,58,53,67,55,40,100,90,54,30.01,29.78,15,4,18,0.00
2012-5-8,66,58,54,61,56,54,100,96,72,29.85,29.76,16,4,18,0.00
2012-5-9,63,56,52,59,53,48,100,88,64,29.83,29.76,22,8,23,0.00
2012-5-10,57,53,49,51,48,41,95,83,69,29.98,29.79,21,11,22,0.00
2012-5-11,68,56,45,54,46,39,96,73,35,30.19,29.97,13,6,14,0.00
2012-5-12,71,67,62,57,48,40,75,52,37,30.29,30.19,18,5,18,0.00
2012-5-13,64,58,55,59,54,48,100,86,57,30.23,30.11,20,6,20,0.00
2012-5-14,63,58,52,63,55,50,100,89,65,30.13,30.00,13,4,14,0.00
2012-5-15,78,62,49,62,51,40,100,71,29,30.05,29.91,11,4,11,0.00
2012-5-16,69,58,47,59,48,36,100,73,42,30.08,29.87,24,8,24,0.00
2012-5-17,59,51,41,47,40,33,100,68,38,30.23,30.08,18,6,18,0.00
2012-5-18,64,54,42,57,47,35,90,77,56,30.19,30.08,17,5,17,0.00
2012-5-19,70,62,55,60,53,44,87,72,48,30.23,30.07,16,4,18,0.00
2012-5-20,74,65,58,65,58,52,92,78,53,30.27,30.07,11,4,11,0.00
2012-5-21,82,70,59,65,59,53,100,70,47,30.15,29.92,19,6,21,0.00
2012-5-22,61,57,55,59,56,55,100,97,85,30.01,29.92,15,6,18,0.00
2012-5-23,65,59,51,62,58,51,100,96,83,30.02,29.91,13,5,14,0.00
2012-5-24,87,74,60,67,63,60,100,71,44,30.11,29.91,17,4,18,0.00
2012-5-25,85,76,69,71,66,63,99,74,57,30.13,29.95,18,6,23,0.00
2012-5-26,76,68,65,70,64,54,100,89,58,30.29,30.13,23,5,25,0.00
2012-5-27,83,70,64,70,63,52,96,79,56,30.22,30.00,21,4,29,0.00
2012-5-28,91,80,71,74,70,66,93,73,46,30.13,29.88,17,6,25,0.00
2012-5-29,82,74,68,72,66,52,96,77,50,29.95,29.81,18,8,21,0.00
2012-5-30,71,67,63,65,57,49,91,70,57,29.94,29.83,23,6,24,0.00
2012-5-31,64,61,57,60,54,48,98,81,61,30.02,29.86,22,10,22,0.00
2012-6-1,67,59,55,67,58,49,100,96,70,29.87,29.54,31,8,31,0.00
2012-6-2,71,61,50,57,50,45,89,70,43,29.83,29.68,30,12,33,0.00
2012-6-3,69,63,60,61,56,49,95,78,63,29.81,29.73,20,10,26,0.00
2012-6-4,64,59,53,58,55,51,97,86,74,29.89,29.76,16,7,16,0.00
2012-6-5,62,58,55,57,54,52,94,86,70,30.03,29.88,21,8,22,0.00
2012-6-6,69,60,0,63,56,49,100,88,70,30.09,29.98,12,5,19,0.00
2012-6-7,73,66,59,64,60,55,100,84,65,30.14,30.03,11,5,11,0.00
2012-6-8,79,68,61,67,56,42,93,67,29,30.15,29.98,13,6,15,0.00
2012-6-9,86,74,66,64,55,46,73,51,34,30.11,29.98,16,5,17,0.00
2012-6-10,84,75,69,70,61,53,92,62,42,30.24,30.03,12,5,13,0.00
2012-6-11,84,75,70,71,65,57,96,71,49,30.13,29.95,15,4,16,0.00
2012-6-12,75,72,66,72,68,59,100,90,65,30.08,29.88,23,9,29,0.00
2012-6-13,66,61,56,61,53,48,90,77,59,30.24,30.07,24,10,26,0.00
2012-6-14,70,64,53,65,58,50,96,82,64,30.26,30.15,21,6,23,0.00
2012-6-15,82,71,0,68,62,57,92,73,49,30.34,30.16,20,6,21,0.00
2012-6-16,83,73,67,70,63,57,97,71,49,30.34,30.10,12,5,13,0.00
2012-6-17,83,72,67,72,66,59,100,81,62,30.14,29.91,21,6,23,0.00
2012-6-18,81,72,67,76,69,65,100,90,62,30.07,29.90,15,6,23,0.00
2012-6-19,87,79,72,73,69,66,86,73,52,30.20,29.99,18,6,20,0.00
2012-6-20,89,81,75,74,68,65,78,66,48,30.32,30.05,11,5,13,0.00
2012-6-21,87,80,71,73,68,63,100,69,48,30.13,29.90,31,8,31,0.00
2012-6-22,76,71,68,71,67,60,100,88,66,30.09,29.94,15,6,16,0.00
2012-6-23,75,69,62,65,59,52,100,72,47,30.18,30.00,14,5,15,0.00
2012-6-24,83,74,65,70,58,51,79,58,39,30.14,29.91,11,3,13,0.00
2012-6-25,76,67,65,70,60,52,100,80,61,30.05,29.91,28,18,28,0.00
2012-6-26,73,68,64,68,60,54,94,75,64,30.08,29.98,27,12,29,0.00
2012-6-27,81,71,61,70,61,54,100,71,47,30.13,29.93,14,5,16,0.00
2012-6-28,89,80,72,77,63,53,87,58,41,29.96,29.78,15,5,16,0.00
2012-6-29,82,77,73,77,72,60,100,86,51,29.99,29.79,17,5,20,0.00
2012-6-30,85,76,66,73,66,60,95,74,56,29.96,29.84,13,5,15,0.00
2012-7-1,81,76,70,76,69,57,97,79,49,30.10,29.89,26,7,26,0.00
2012-7-2,78,76,74,74,69,64,93,81,69,30.08,30.03,5,2,8,0.00
2012-7-3,86,76,69,76,67,59,100,77,55,30.09,29.90,32,6,38,0.00
2012-7-4,89,80,71,79,74,68,100,84,59,30.07,29.88,17,6,19,0.00
2012-7-5,86,77,69,78,72,66,100,87,63,30.11,29.95,31,5,38,0.00
2012-7-6,86,79,73,80,76,71,100,92,79,30.16,29.98,9,4,10,0.00
2012-7-7,89,82,74,83,75,67,94,79,67,30.11,29.97,19,7,21,0.00
2012-7-8,77,75,72,74,70,61,99,86,61,30.14,30.00,26,11,26,0.00
2012-7-9,76,72,66,68,64,59,92,76,63,30.16,30.05,20,8,21,0.00
2012-7-10,76,71,65,68,62,57,88,72,56,30.21,30.06,16,6,18,0.00
2012-7-11,78,72,62,70,64,57,94,76,51,30.27,30.15,20,7,20,0.00
2012-7-12,83,75,67,74,67,60,87,77,51,30.29,30.15,16,5,16,0.00
2012-7-13,91,79,71,74,61,54,84,54,37,30.35,30.18,13,4,17,0.00
2012-7-14,77,72,64,73,67,60,95,85,68,30.23,30.12,12,4,13,0.00
2012-7-15,87,78,0,77,73,68,100,83,61,30.20,30.05,16,6,21,0.00
2012-7-16,85,78,75,76,72,60,100,82,51,30.16,29.96,15,5,16,0.00
2012-7-17,91,84,79,78,71,60,81,66,49,30.05,29.89,17,7,20,0.00
2012-7-18,86,77,74,79,75,72,100,94,70,30.10,29.90,17,7,18,0.00
2012-7-19,84,74,71,76,72,70,100,96,66,30.09,29.95,20,4,22,0.00
2012-7-20,72,69,66,70,66,62,100,90,76,30.10,29.95,22,6,25,0.00
2012-7-21,77,70,61,69,64,58,100,84,55,30.23,30.08,11,4,12,0.00
2012-7-22,87,78,71,76,68,62,81,73,61,30.28,30.11,13,5,16,0.00
2012-7-23,88,81,0,77,71,67,86,72,52,30.19,29.91,18,8,24,0.00
2012-7-24,81,76,72,78,71,57,100,84,57,30.06,29.91,25,12,26,0.00
2012-7-25,88,75,62,68,63,56,94,66,38,30.13,29.77,20,6,20,0.00
2012-7-26,84,78,72,78,74,67,100,86,64,29.85,29.73,25,6,28,0.00
2012-7-27,79,74,67,75,72,67,100,96,81,29.99,29.78,15,6,18,0.00
2012-7-28,76,72,67,74,70,67,100,94,80,30.15,29.92,23,8,24,0.00
2012-7-29,78,72,66,71,64,57,100,76,52,30.24,30.09,15,5,16,0.00
2012-7-30,83,75,66,72,64,54,78,68,54,30.18,30.02,13,5,15,0.00
2012-7-31,85,76,70,76,67,62,94,74,47,30.04,29.93,20,6,21,0.00
2012-8-1,77,74,68,72,68,64,100,84,68,30.06,29.94,13,6,14,0.00
2012-8-2,82,74,65,70,64,58,95,72,49,30.08,29.91,14,5,14,0.00
2012-8-3,90,80,72,78,68,61,87,69,46,30.15,29.96,17,6,18,0.00
2012-8-4,93,84,73,74,70,68,86,66,49,30.18,30.01,20,6,21,0.00
2012-8-5,83,77,71,76,73,66,100,88,67,30.14,29.98,25,9,29,0.00
2012-8-6,77,72,65,69,61,51,90,69,51,30.28,30.09,24,8,24,0.00
2012-8-7,81,72,64,66,58,51,76,62,47,30.11,30.02,11,5,20,0.00
2012-8-8,79,75,70,76,66,55,99,75,54,30.10,29.99,16,6,17,0.00
2012-8-9,76,71,65,70,66,62,100,85,66,30.07,29.84,16,5,18,0.00
2012-8-10,74,68,63,71,65,57,100,93,74,29.84,29.74,33,7,36,0.00
2012-8-11,70,64,59,65,62,58,100,92,83,29.97,29.74,26,9,26,0.00
2012-8-12,74,69,63,67,64,60,100,83,65,30.11,29.96,20,8,23,0.00
2012-8-13,75,70,65,65,61,57,83,73,60,30.12,30.00,13,5,13,0.00
2012-8-14,72,68,65,69,66,62,100,92,81,30.00,29.92,13,5,15,0.00
2012-8-15,75,70,62,71,66,62,100,88,70,30.11,29.94,15,6,15,0.00
2012-8-16,85,75,65,71,65,60,94,74,45,30.08,29.89,19,6,22,0.00
2012-8-17,75,71,69,71,64,58,97,79,61,30.01,29.89,25,11,27,0.00
2012-8-18,71,68,60,64,57,49,80,67,58,30.10,29.99,17,8,18,0.00
2012-8-19,73,67,60,63,54,44,81,64,52,30.03,29.94,16,5,17,0.00
2012-8-20,74,67,60,67,60,56,97,80,63,30.05,29.93,19,5,19,0.00
2012-8-21,73,66,60,65,60,56,92,81,61,30.17,30.03,13,5,16,0.00
2012-8-22,76,68,57,65,60,54,100,77,53,30.28,30.11,12,4,13,0.00
2012-8-23,77,71,63,68,60,54,81,69,53,30.30,30.16,11,5,12,0.00
2012-8-24,85,74,63,73,63,56,88,70,40,30.33,30.15,16,5,16,0.00
2012-8-25,87,77,69,76,66,60,93,71,42,30.32,30.16,15,5,15,0.00
2012-8-26,87,75,68,76,64,57,99,70,40,30.28,30.12,15,6,16,0.00
2012-8-27,76,72,67,75,69,63,100,91,69,30.16,30.01,15,4,17,0.00
2012-8-28,74,72,70,73,67,61,100,85,68,30.18,30.03,18,9,19,0.00
2012-8-29,71,65,0,58,55,53,82,69,59,30.15,30.11,8,4,10,0.00
2012-8-30,76,68,58,66,58,51,86,71,50,30.21,30.09,11,5,11,0.00
2012-8-31,82,76,69,76,66,54,94,71,53,30.22,30.08,16,7,17,0.00
2012-9-1,78,74,69,76,70,62,100,88,64,30.23,30.11,16,5,18,0.00
2012-9-2,80,73,69,78,68,-14,100,88,3,30.16,30.02,16,3,16,0.00
2012-9-3,83,73,68,78,72,64,100,96,74,30.12,29.95,15,4,21,0.00
2012-9-4,77,73,69,77,72,69,100,100,94,29.99,29.89,16,5,17,0.00
2012-9-5,83,71,63,75,70,63,100,94,64,30.00,29.89,11,4,13,0.00
2012-9-6,77,73,70,75,72,70,100,96,84,30.03,29.90,13,5,14,0.00
2012-9-7,79,73,68,73,68,61,100,86,66,30.06,29.74,12,5,15,0.00
2012-9-8,74,67,63,70,62,54,100,86,61,29.91,29.57,36,14,37,0.00
2012-9-9,68,63,56,60,56,47,100,79,52,30.11,29.87,24,9,26,0.00
2012-9-10,69,64,56,58,53,47,89,67,48,30.28,30.11,23,10,24,0.00
2012-9-11,74,65,56,62,53,46,87,66,47,30.33,30.20,14,5,16,0.00
2012-9-12,80,70,62,67,56,51,75,63,48,30.36,30.25,11,5,13,0.00
2012-9-13,78,73,68,69,62,57,77,69,54,30.43,30.25,11,5,15,0.00
2012-9-14,72,64,56,70,61,53,100,91,70,30.31,30.20,28,8,30,0.00
2012-9-15,68,60,54,60,53,44,100,79,47,30.34,30.20,18,6,18,0.00
2012-9-16,71,62,54,59,52,47,87,69,51,30.21,30.08,13,5,13,0.00
2012-9-17,76,67,56,58,52,47,76,61,45,30.09,29.82,15,5,15,0.00
2012-9-18,69,63,59,65,59,46,100,88,60,29.93,29.61,33,14,37,0.00
2012-9-19,65,57,49,51,44,37,84,61,42,30.18,29.93,28,9,29,0.00
2012-9-20,74,63,53,54,47,40,65,57,46,30.08,29.94,21,7,29,0.00
2012-9-21,69,63,56,58,53,42,99,71,41,30.01,29.83,18,7,20,0.00
2012-9-22,57,56,56,57,56,56,100,100,99,29.83,29.82,11,6,13,0.00
2012-9-23,57,52,0,51,46,41,96,78,61,30.19,30.15,28,10,32,0.00
2012-9-24,64,53,45,49,42,36,100,70,36,30.23,30.01,18,7,20,0.00
2012-9-25,68,59,51,60,49,40,100,70,53,30.06,29.97,17,7,20,0.00
2012-9-26,66,62,60,66,62,56,100,98,82,30.15,29.95,16,6,19,0.00
2012-9-27,63,58,53,57,52,48,91,79,60,30.25,30.15,15,4,17,0.00
2012-9-28,63,56,48,55,49,43,100,79,52,30.21,30.08,15,6,17,0.00
2012-9-29,64,56,49,58,52,45,98,85,69,30.10,29.94,13,4,13,0.00
2012-9-30,61,56,50,56,50,46,100,82,65,29.95,29.87,15,6,16,0.00
2012-10-1,62,56,46,58,53,46,100,89,70,30.00,29.84,16,4,17,0.00
2012-10-2,65,60,54,65,60,53,100,100,93,29.92,29.81,14,3,14,0.00
2012-10-3,73,65,62,66,61,55,100,86,62,30.17,29.91,20,6,21,0.00
2012-10-4,72,65,59,64,57,54,88,76,60,30.19,30.10,16,6,19,0.00
2012-10-5,69,60,49,62,57,47,100,89,69,30.13,29.96,25,11,28,0.00
2012-10-6,53,51,46,52,45,39,100,82,60,30.09,29.91,27,15,33,0.00
2012-10-7,50,45,42,48,44,40,100,95,77,30.11,30.03,18,6,20,0.00
2012-10-8,56,45,40,42,38,34,100,78,48,30.22,30.10,15,5,15,0.00
2012-10-9,62,50,40,43,40,38,95,71,43,30.16,29.93,18,6,18,0.00
2012-10-10,53,50,47,50,43,34,100,76,58,30.14,29.82,36,15,38,0.00
2012-10-11,59,51,40,40,35,31,74,55,39,30.23,30.09,33,12,33,0.00
2012-10-12,55,47,39,51,38,32,92,71,52,30.39,30.11,29,12,31,0.00
2012-10-13,67,52,38,58,40,28,84,66,47,30.36,29.98,24,6,29,0.00
2012-10-14,75,67,61,65,61,57,100,82,59,30.00,29.60,33,10,33,0.00
2012-10-15,67,55,52,62,50,42,100,85,74,29.90,29.59,41,16,41,0.00
2012-10-16,54,51,48,47,43,39,88,75,67,29.99,29.82,21,8,26,0.00
2012-10-17,75,61,51,54,47,41,73,60,43,29.84,29.70,17,6,26,0.00
2012-10-18,65,58,51,52,48,45,98,71,54,29.76,29.56,31,8,39,0.00
2012-10-19,63,53,47,49,45,38,100,76,41,29.74,29.61,22,7,24,0.00
2012-10-20,54,50,0,50,47,44,99,89,78,29.91,29.63,28,12,30,0.00
2012-10-21,59,50,44,51,47,43,100,87,64,30.12,29.91,18,6,18,0.00
2012-10-22,75,61,46,59,50,42,91,70,46,30.16,30.05,11,5,15,0.00
2012-10-23,69,64,60,65,60,55,100,87,61,30.09,29.99,25,7,25,0.00
2012-10-24,73,65,59,64,60,56,100,84,64,30.12,30.05,13,4,16,0.00
2012-10-25,82,71,63,57,53,46,74,55,29,30.12,29.98,20,7,24,0.00
2012-10-26,59,52,47,59,51,47,100,99,93,30.16,30.09,27,16,28,0.00
2012-10-27,52,49,46,50,48,45,100,96,85,30.14,30.02,29,17,30,0.00
2012-10-28,50,46,44,48,45,43,100,96,87,30.08,29.92,37,19,38,0.00
2012-10-29,46,44,44,46,44,42,100,99,94,29.92,29.47,50,29,56,0.00
2012-10-30,49,48,47,49,48,47,100,100,100,29.33,28.35,44,27,46,0.00
2012-10-31,49,45,43,49,45,42,100,100,93,29.57,29.31,33,21,35,0.00
2012-11-1,47,44,40,44,41,36,100,91,65,29.69,29.57,26,16,30,0.00
2012-11-2,47,43,40,40,36,30,92,75,65,29.96,29.68,31,21,34,0.00
2012-11-3,44,42,40,40,36,30,92,79,63,30.08,29.95,26,16,27,0.00
2012-11-4,42,40,38,38,34,30,92,78,68,30.09,30.05,21,12,24,0.00
2012-11-5,42,39,36,38,32,27,92,76,64,30.12,30.05,23,9,24,0.00
2012-11-6,47,37,32,36,29,24,90,72,50,30.09,29.87,20,5,21,0.00
2012-11-7,43,38,30,38,30,26,90,75,53,30.04,29.85,20,6,21,0.00
2012-11-8,43,40,34,37,34,31,100,79,70,30.15,30.03,17,8,18,0.00
2012-11-9,52,43,34,46,38,33,100,83,64,30.18,30.07,15,6,17,0.00
2012-11-10,66,56,46,49,46,43,100,73,50,30.16,30.10,18,6,23,0.00
2012-11-11,70,63,56,44,40,35,55,43,32,30.24,30.05,23,10,26,0.00
2012-11-12,66,53,35,58,44,28,100,75,34,30.24,29.95,36,16,38,0.00
2012-11-13,38,36,33,34,29,25,100,76,66,30.45,30.23,26,10,28,0.00
2012-11-14,42,36,29,31,28,26,96,72,58,30.50,30.31,10,3,13,0.00
2012-11-15,43,36,27,37,31,27,100,84,64,30.32,30.24,11,5,11,0.00
2012-11-16,45,40,34,41,38,34,100,90,79,30.41,30.26,13,6,15,0.00
2012-11-17,53,40,30,46,37,30,100,92,59,30.56,30.41,13,5,13,0.00
2012-11-18,58,43,35,46,36,31,98,76,37,30.48,30.34,11,3,13,0.00
2012-11-19,57,44,37,45,36,31,90,74,48,30.35,30.14,10,3,11,0.00
2012-11-20,55,46,39,48,40,35,93,78,56,30.14,30.06,8,3,9,0.00
2012-11-21,50,44,36,49,41,35,99,88,72,30.19,30.08,9,4,9,0.00
2012-11-22,63,54,45,44,40,35,75,62,48,30.15,29.91,21,8,21,0.00
2012-11-23,56,45,33,51,40,27,100,82,58,29.91,29.75,42,20,44,0.00
2012-11-24,38,35,32,32,27,23,81,72,64,29.99,29.87,34,19,36,0.00
2012-11-25,40,35,27,34,28,22,100,76,60,29.94,29.77,25,12,27,0.00
2012-11-26,41,38,36,35,31,28,91,75,63,30.17,29.90,21,11,24,0.00
2012-11-27,36,33,27,31,26,23,87,77,69,30.24,30.15,18,8,19,0.00
2012-11-28,38,33,27,33,27,22,84,78,67,30.23,30.13,24,12,26,0.00
2012-11-29,49,38,30,34,26,22,88,64,35,30.26,30.17,19,8,20,0.00
2012-11-30,49,42,38,43,33,24,96,72,52,30.18,30.07,12,5,14,0.00
2012-12-1,58,47,34,46,41,34,100,81,61,30.21,30.08,20,7,25,0.00
2012-12-2,58,54,52,56,52,45,100,93,68,30.10,29.94,22,10,26,0.00
2012-12-3,63,57,49,61,57,48,100,98,91,30.14,30.03,23,7,23,0.00
2012-12-4,64,55,44,58,51,43,100,87,75,30.05,29.93,26,11,29,0.00
2012-12-5,46,38,34,44,33,25,97,80,68,30.29,30.05,29,14,29,0.00
2012-12-6,45,36,27,33,28,25,94,74,52,30.27,29.92,13,3,13,0.00
2012-12-7,47,44,41,46,43,32,100,95,66,29.93,29.82,15,4,15,0.00
2012-12-8,46,43,40,46,43,36,100,98,85,30.08,29.73,19,8,21,0.00
2012-12-9,55,42,0,55,40,32,100,90,76,30.09,29.63,18,6,23,0.00
2012-12-10,57,43,35,57,42,31,100,97,85,29.76,29.54,29,12,30,0.00
2012-12-11,38,35,30,35,30,23,96,82,69,30.10,29.76,21,11,26,0.00
2012-12-12,42,33,27,32,27,24,100,81,57,30.31,30.10,19,7,20,0.00
2012-12-13,47,36,27,32,25,21,95,66,36,30.33,30.13,18,7,20,0.00
2012-12-14,43,39,33,37,31,23,100,74,53,30.20,30.10,18,7,19,0.00
2012-12-15,50,43,33,38,32,27,98,66,45,30.10,29.74,19,6,22,0.00
2012-12-16,59,54,46,52,48,38,100,78,63,29.74,29.63,23,10,28,0.00
2012-12-17,50,44,41,48,42,40,100,95,87,29.71,29.49,16,7,18,0.00
2012-12-18,41,39,37,41,37,32,100,92,78,29.72,29.49,26,12,28,0.00
2012-12-19,41,39,34,41,38,34,100,95,81,30.08,29.68,15,5,16,0.00
2012-12-20,50,42,35,48,38,32,100,87,66,30.04,29.22,33,10,38,0.00
2012-12-21,40,33,31,35,32,28,100,95,69,29.66,29.16,44,23,47,0.00
2012-12-22,35,32,0,32,28,23,93,84,72,29.96,29.66,44,20,46,0.00
2012-12-23,35,30,23,32,26,21,94,86,72,29.94,29.80,17,9,18,0.00
2012-12-24,37,32,26,35,28,24,100,88,67,29.92,29.71,13,4,13,0.00
2012-12-25,36,34,33,35,31,25,100,88,72,30.16,29.82,23,10,26,0.00
2012-12-26,34,29,26,31,26,21,100,88,71,30.13,29.59,21,8,24,0.00
2012-12-27,34,31,29,34,30,26,100,95,83,30.03,29.60,31,16,33,0.00
2012-12-28,35,28,24,29,26,23,100,90,73,30.07,29.83,15,5,16,0.00
2012-12-29,33,29,25,33,27,18,100,91,75,34.65,29.74,29,11,30,0.00
2012-12-30,31,26,20,31,21,0,100,80,67,34.65,20.09,33,16,34,1.85
2012-12-31,36,33,23,28,24,20,75,72,62,34.64,20.30,25,14,29,0.07
2013-1-1,33,28,23,26,19,0,92,70,63,34.65,17.84,23,14,26,2.61